Mexico V — XCKR — position and weather

sailwx.info

Track history (hours):
 
Tides and Currents Weather Stations Pressure Air Temp Water Temp Dewpoint Dewpoint Depression Visibility Wind Speed Wind Dir Waves Ship Positions

Mexico V

Last reported at 2015-Sep-02 21:11 UTC. Time now 2015-Sep-04 01:39 UTC.
Position N 20°32' W 086°58'.

Length 40 m; draft 1.5 m.

Type: Ship. MMSI: 345110005.

Date/timePositionNaut miles runAvg speedWind from/ knotsBaromVisibWave heightAir tempDewpointWater temp
2015-Sep-02 21:11N 20°32' W 086°58'2 2.3
2015-Sep-02 20:27N 20°31' W 086°57'2 2.3
2015-Sep-02 19:33N 20°32' W 086°59'1 0.4
2015-Sep-02 18:14N 20°32' W 086°58'1 0.8
2015-Sep-02 17:33N 20°32' W 086°59'0 0.3
2015-Sep-02 16:13N 20°33' W 086°59'2 2.9
2015-Sep-02 15:24N 20°31' W 086°57'0 0.1
2015-Sep-02 14:33N 20°31' W 086°57'1 1.2
2015-Sep-02 13:33N 20°31' W 086°58'1 0.5
2015-Sep-02 12:14N 20°32' W 086°58'2 2.6
2015-Sep-02 11:33N 20°31' W 086°57'2 0.2
2015-Sep-02 01:33N 20°32' W 086°58'0 0.2
2015-Sep-02 00:13N 20°32' W 086°58'2 2.1
2015-Sep-01 23:16N 20°31' W 086°57'0 0.5
2015-Sep-01 22:33N 20°31' W 086°57'2 0.5
2015-Sep-01 19:13N 20°32' W 086°58'0 0.1
2015-Sep-01 18:33N 20°32' W 086°58'0 0.2
2015-Sep-01 17:18N 20°32' W 086°58'0 0.6
2015-Sep-01 16:33N 20°32' W 086°59'3 0.9
2015-Sep-01 13:33N 20°29' W 086°58'2 1.8
2015-Sep-01 12:34N 20°31' W 086°57'0 0.0
2015-Sep-01 11:34N 20°31' W 086°57'1 0.2
2015-Sep-01 03:33N 20°32' W 086°58'2 1.4
2015-Sep-01 02:15N 20°33' W 086°59'3 4.3
2015-Sep-01 01:33N 20°31' W 086°57'0 0.1
2015-Sep-01 00:33N 20°31' W 086°57'0 0.0
2015-Aug-31 23:33N 20°31' W 086°57'0 0.4
2015-Aug-31 22:33N 20°31' W 086°57'2 1.1
2015-Aug-31 21:12N 20°32' W 086°58'2 2.8
2015-Aug-31 20:32N 20°31' W 086°57'1 1.2
2015-Aug-31 19:33N 20°32' W 086°58'2 1.6
2015-Aug-31 18:21N 20°33' W 086°59'1 1.0
2015-Aug-31 17:34N 20°32' W 086°59'1 0.7
2015-Aug-31 16:17N 20°33' W 086°60'3 4.4
2015-Aug-31 15:33N 20°31' W 086°57'0 0.0
2015-Aug-31 14:33N 20°31' W 086°57'1 0.8
2015-Aug-31 13:33N 20°31' W 086°58'1 0.9
2015-Aug-31 12:16N 20°32' W 086°59'2 2.7
2015-Aug-31 11:33N 20°31' W 086°57'0 0.0
2015-Aug-31 00:27N 20°31' W 086°57'0 0.0
2015-Aug-30 23:33N 20°31' W 086°57'0 0.0
2015-Aug-30 22:34N 20°31' W 086°57'0 0.0
2015-Aug-30 21:33N 20°31' W 086°57'1 1.3
2015-Aug-30 20:33N 20°32' W 086°58'1 1.0
2015-Aug-30 19:18N 20°32' W 086°59'3 3.4
2015-Aug-30 18:33N 20°31' W 086°57'0 0.1
2015-Aug-30 17:33N 20°31' W 086°57'2 1.5
2015-Aug-30 16:33N 20°32' W 086°58'1 0.4
2015-Aug-30 15:12N 20°32' W 086°59'1 1.9
2015-Aug-30 14:33N 20°31' W 086°58'2 1.3
2015-Aug-30 13:12N 20°33' W 086°59'3 3.9
2015-Aug-30 12:33N 20°31' W 086°57'1 0.1
2015-Aug-30 03:33N 20°31' W 086°58'1 1.1
2015-Aug-30 02:17N 20°32' W 086°59'2 2.0
2015-Aug-30 01:14N 20°31' W 086°57'0 0.1
2015-Aug-30 00:33N 20°31' W 086°57'0 0.0
2015-Aug-29 23:33N 20°31' W 086°57'0 0.0
2015-Aug-29 22:33N 20°31' W 086°57'0 0.1
2015-Aug-29 21:23N 20°31' W 086°57'0 0.0
2015-Aug-29 19:29N 20°31' W 086°57'0 0.1
2015-Aug-29 18:33N 20°31' W 086°57'1 1.0
2015-Aug-29 17:34N 20°31' W 086°58'1 0.7
2015-Aug-29 16:13N 20°32' W 086°58'2 1.8
2015-Aug-29 15:11N 20°31' W 086°57'0 0.1
2015-Aug-29 14:34N 20°31' W 086°57'1 0.5
2015-Aug-29 13:33N 20°31' W 086°57'2 1.4
2015-Aug-29 12:14N 20°32' W 086°59'2 3.4
2015-Aug-29 11:33N 20°31' W 086°57'0 0.0
2015-Aug-29 00:33N 20°31' W 086°57'4 1.7
2015-Aug-28 22:25N 20°33' W 086°60'4 4.2
2015-Aug-28 21:33N 20°31' W 086°57'2 2.2
2015-Aug-28 20:34N 20°32' W 086°59'0 0.2
2015-Aug-28 19:14N 20°32' W 086°59'2 2.1
2015-Aug-28 18:19N 20°31' W 086°57'0 0.0
2015-Aug-28 16:34N 20°31' W 086°57'2 1.2
2015-Aug-28 14:33N 20°29' W 086°59'0 0.0
2015-Aug-28 13:29N 20°29' W 086°58'2 2.5
2015-Aug-28 12:33N 20°31' W 086°57'1 0.1
2015-Aug-28 03:33N 20°31' W 086°58'1 0.4
2015-Aug-28 02:12N 20°32' W 086°58'2 2.4
2015-Aug-28 01:33N 20°31' W 086°57'0 0.1
2015-Aug-28 00:33N 20°31' W 086°57'1 0.8
2015-Aug-27 23:13N 20°31' W 086°58'1 1.1
2015-Aug-27 22:33N 20°32' W 086°59'0 0.2
2015-Aug-27 21:11N 20°32' W 086°58'2 2.9
2015-Aug-27 20:32N 20°31' W 086°57'2 2.2
2015-Aug-27 19:34N 20°32' W 086°59'0 0.1
2015-Aug-27 14:11N 20°32' W 086°58'1 1.6
2015-Aug-27 13:34N 20°31' W 086°58'2 1.3
2015-Aug-27 12:16N 20°33' W 086°59'2 3.4
2015-Aug-27 11:33N 20°31' W 086°57'0 0.0
2015-Aug-27 01:04N 20°31' W 086°57'0 0.0
2015-Aug-27 00:33N 20°31' W 086°57'0 0.0
2015-Aug-26 23:33N 20°31' W 086°57'0 0.0
2015-Aug-26 22:33N 20°31' W 086°57'0 0.0
2015-Aug-26 21:33N 20°31' W 086°57'1 1.4
2015-Aug-26 20:33N 20°32' W 086°58'0 0.2
2015-Aug-26 19:13N 20°32' W 086°58'0 0.2
2015-Aug-26 18:33N 20°32' W 086°58'0 0.1
2015-Aug-26 17:12N 20°32' W 086°58'0 0.2
2015-Aug-26 15:11N 20°32' W 086°58'0 0.4
2015-Aug-26 14:34N 20°32' W 086°59'0 0.2
2015-Aug-26 13:13N 20°32' W 086°58'2 1.7
2015-Aug-26 12:10N 20°31' W 086°57'0 0.1
2015-Aug-26 11:33N 20°31' W 086°57'0 0.0
2015-Aug-26 03:33N 20°31' W 086°57'2 1.7
2015-Aug-26 02:15N 20°32' W 086°59'2 3.1
2015-Aug-26 01:33N 20°31' W 086°57'0 0.1
2015-Aug-26 00:34N 20°31' W 086°57'0 0.0
2015-Aug-25 23:34N 20°31' W 086°57'0 0.0
2015-Aug-25 22:14N 20°31' W 086°57'0 0.0
2015-Aug-25 21:34N 20°31' W 086°57'0 0.0
2015-Aug-25 19:33N 20°31' W 086°57'0 0.1
2015-Aug-25 18:33N 20°31' W 086°57'0 0.0
2015-Aug-25 17:33N 20°31' W 086°57'0 0.0
2015-Aug-25 15:22N 20°31' W 086°57'2 0.9
2015-Aug-25 12:33N 20°29' W 086°59'0 0.0
2015-Aug-25 11:33N 20°29' W 086°59'2 0.2
2015-Aug-25 01:33N 20°31' W 086°57'0 0.0
2015-Aug-25 00:34N 20°31' W 086°57'0 0.0
2015-Aug-24 23:34N 20°31' W 086°57'0 0.0
2015-Aug-24 22:33N 20°31' W 086°57'0 0.0
2015-Aug-24 21:33N 20°31' W 086°57'1 0.6
2015-Aug-24 19:11N 20°32' W 086°58'0 0.5
2015-Aug-24 18:33N 20°32' W 086°58'0 0.1
2015-Aug-24 17:12N 20°32' W 086°58'0 0.6
2015-Aug-24 16:33N 20°32' W 086°58'1 0.5
2015-Aug-24 13:33N 20°30' W 086°57'0 0.0
2015-Aug-24 12:33N 20°30' W 086°57'0 0.3
2015-Aug-24 11:33N 20°31' W 086°57'1 0.1
2015-Aug-24 03:34N 20°31' W 086°58'1 1.1
2015-Aug-24 02:19N 20°32' W 086°59'2 3.1
2015-Aug-24 01:33N 20°31' W 086°57'0 0.1
2015-Aug-24 00:33N 20°31' W 086°57'0 0.0
2015-Aug-23 23:33N 20°31' W 086°57'0 0.0
2015-Aug-23 22:33N 20°31' W 086°57'0 0.0
2015-Aug-23 21:33N 20°31' W 086°57'  
Track history (hours):
 
Tides and Currents Weather Stations Pressure Air Temp Water Temp Dewpoint Dewpoint Depression Visibility Wind Speed Wind Dir Waves Ship Positions

Mexico V

Last reported at 2015-Sep-02 21:11 UTC. Time now 2015-Sep-04 01:39 UTC.
Position N 20°32' W 086°58'.

Length 40 m; draft 1.5 m.

Type: Ship. MMSI: 345110005.

Date/timePositionNaut miles runAvg speedWind from/ knotsBaromVisibWave heightAir tempDewpointWater temp
2015-Sep-02 21:11N 20°32' W 086°58'2 2.3
2015-Sep-02 20:27N 20°31' W 086°57'2 2.3
2015-Sep-02 19:33N 20°32' W 086°59'1 0.4
2015-Sep-02 18:14N 20°32' W 086°58'1 0.8
2015-Sep-02 17:33N 20°32' W 086°59'0 0.3
2015-Sep-02 16:13N 20°33' W 086°59'2 2.9
2015-Sep-02 15:24N 20°31' W 086°57'0 0.1
2015-Sep-02 14:33N 20°31' W 086°57'1 1.2
2015-Sep-02 13:33N 20°31' W 086°58'1 0.5
2015-Sep-02 12:14N 20°32' W 086°58'2 2.6
2015-Sep-02 11:33N 20°31' W 086°57'2 0.2
2015-Sep-02 01:33N 20°32' W 086°58'0 0.2
2015-Sep-02 00:13N 20°32' W 086°58'2 2.1
2015-Sep-01 23:16N 20°31' W 086°57'0 0.5
2015-Sep-01 22:33N 20°31' W 086°57'2 0.5
2015-Sep-01 19:13N 20°32' W 086°58'0 0.1
2015-Sep-01 18:33N 20°32' W 086°58'0 0.2
2015-Sep-01 17:18N 20°32' W 086°58'0 0.6
2015-Sep-01 16:33N 20°32' W 086°59'3 0.9
2015-Sep-01 13:33N 20°29' W 086°58'2 1.8
2015-Sep-01 12:34N 20°31' W 086°57'0 0.0
2015-Sep-01 11:34N 20°31' W 086°57'1 0.2
2015-Sep-01 03:33N 20°32' W 086°58'2 1.4
2015-Sep-01 02:15N 20°33' W 086°59'3 4.3
2015-Sep-01 01:33N 20°31' W 086°57'0 0.1
2015-Sep-01 00:33N 20°31' W 086°57'0 0.0
2015-Aug-31 23:33N 20°31' W 086°57'0 0.4
2015-Aug-31 22:33N 20°31' W 086°57'2 1.1
2015-Aug-31 21:12N 20°32' W 086°58'2 2.8
2015-Aug-31 20:32N 20°31' W 086°57'1 1.2
2015-Aug-31 19:33N 20°32' W 086°58'2 1.6
2015-Aug-31 18:21N 20°33' W 086°59'1 1.0
2015-Aug-31 17:34N 20°32' W 086°59'1 0.7
2015-Aug-31 16:17N 20°33' W 086°60'3 4.4
2015-Aug-31 15:33N 20°31' W 086°57'0 0.0
2015-Aug-31 14:33N 20°31' W 086°57'1 0.8
2015-Aug-31 13:33N 20°31' W 086°58'1 0.9
2015-Aug-31 12:16N 20°32' W 086°59'2 2.7
2015-Aug-31 11:33N 20°31' W 086°57'0 0.0
2015-Aug-31 00:27N 20°31' W 086°57'0 0.0
2015-Aug-30 23:33N 20°31' W 086°57'0 0.0
2015-Aug-30 22:34N 20°31' W 086°57'0 0.0
2015-Aug-30 21:33N 20°31' W 086°57'1 1.3
2015-Aug-30 20:33N 20°32' W 086°58'1 1.0
2015-Aug-30 19:18N 20°32' W 086°59'3 3.4
2015-Aug-30 18:33N 20°31' W 086°57'0 0.1
2015-Aug-30 17:33N 20°31' W 086°57'2 1.5
2015-Aug-30 16:33N 20°32' W 086°58'1 0.4
2015-Aug-30 15:12N 20°32' W 086°59'1 1.9
2015-Aug-30 14:33N 20°31' W 086°58'2 1.3
2015-Aug-30 13:12N 20°33' W 086°59'3 3.9
2015-Aug-30 12:33N 20°31' W 086°57'1 0.1
2015-Aug-30 03:33N 20°31' W 086°58'1 1.1
2015-Aug-30 02:17N 20°32' W 086°59'2 2.0
2015-Aug-30 01:14N 20°31' W 086°57'0 0.1
2015-Aug-30 00:33N 20°31' W 086°57'0 0.0
2015-Aug-29 23:33N 20°31' W 086°57'0 0.0
2015-Aug-29 22:33N 20°31' W 086°57'0 0.1
2015-Aug-29 21:23N 20°31' W 086°57'0 0.0
2015-Aug-29 19:29N 20°31' W 086°57'0 0.1
2015-Aug-29 18:33N 20°31' W 086°57'1 1.0
2015-Aug-29 17:34N 20°31' W 086°58'1 0.7
2015-Aug-29 16:13N 20°32' W 086°58'2 1.8
2015-Aug-29 15:11N 20°31' W 086°57'0 0.1
2015-Aug-29 14:34N 20°31' W 086°57'1 0.5
2015-Aug-29 13:33N 20°31' W 086°57'2 1.4
2015-Aug-29 12:14N 20°32' W 086°59'2 3.4
2015-Aug-29 11:33N 20°31' W 086°57'0 0.0
2015-Aug-29 00:33N 20°31' W 086°57'4 1.7
2015-Aug-28 22:25N 20°33' W 086°60'4 4.2
2015-Aug-28 21:33N 20°31' W 086°57'2 2.2
2015-Aug-28 20:34N 20°32' W 086°59'0 0.2
2015-Aug-28 19:14N 20°32' W 086°59'2 2.1
2015-Aug-28 18:19N 20°31' W 086°57'0 0.0
2015-Aug-28 16:34N 20°31' W 086°57'2 1.2
2015-Aug-28 14:33N 20°29' W 086°59'0 0.0
2015-Aug-28 13:29N 20°29' W 086°58'2 2.5
2015-Aug-28 12:33N 20°31' W 086°57'1 0.1
2015-Aug-28 03:33N 20°31' W 086°58'1 0.4
2015-Aug-28 02:12N 20°32' W 086°58'2 2.4
2015-Aug-28 01:33N 20°31' W 086°57'0 0.1
2015-Aug-28 00:33N 20°31' W 086°57'1 0.8
2015-Aug-27 23:13N 20°31' W 086°58'1 1.1
2015-Aug-27 22:33N 20°32' W 086°59'0 0.2
2015-Aug-27 21:11N 20°32' W 086°58'2 2.9
2015-Aug-27 20:32N 20°31' W 086°57'2 2.2
2015-Aug-27 19:34N 20°32' W 086°59'0 0.1
2015-Aug-27 14:11N 20°32' W 086°58'1 1.6
2015-Aug-27 13:34N 20°31' W 086°58'2 1.3
2015-Aug-27 12:16N 20°33' W 086°59'2 3.4
2015-Aug-27 11:33N 20°31' W 086°57'0 0.0
2015-Aug-27 01:04N 20°31' W 086°57'0 0.0
2015-Aug-27 00:33N 20°31' W 086°57'0 0.0
2015-Aug-26 23:33N 20°31' W 086°57'0 0.0
2015-Aug-26 22:33N 20°31' W 086°57'0 0.0
2015-Aug-26 21:33N 20°31' W 086°57'1 1.4
2015-Aug-26 20:33N 20°32' W 086°58'0 0.2
2015-Aug-26 19:13N 20°32' W 086°58'0 0.2
2015-Aug-26 18:33N 20°32' W 086°58'0 0.1
2015-Aug-26 17:12N 20°32' W 086°58'0 0.2
2015-Aug-26 15:11N 20°32' W 086°58'0 0.4
2015-Aug-26 14:34N 20°32' W 086°59'0 0.2
2015-Aug-26 13:13N 20°32' W 086°58'2 1.7
2015-Aug-26 12:10N 20°31' W 086°57'0 0.1
2015-Aug-26 11:33N 20°31' W 086°57'0 0.0
2015-Aug-26 03:33N 20°31' W 086°57'2 1.7
2015-Aug-26 02:15N 20°32' W 086°59'2 3.1
2015-Aug-26 01:33N 20°31' W 086°57'0 0.1
2015-Aug-26 00:34N 20°31' W 086°57'0 0.0
2015-Aug-25 23:34N 20°31' W 086°57'0 0.0
2015-Aug-25 22:14N 20°31' W 086°57'0 0.0
2015-Aug-25 21:34N 20°31' W 086°57'0 0.0
2015-Aug-25 19:33N 20°31' W 086°57'0 0.1
2015-Aug-25 18:33N 20°31' W 086°57'0 0.0
2015-Aug-25 17:33N 20°31' W 086°57'0 0.0
2015-Aug-25 15:22N 20°31' W 086°57'2 0.9
2015-Aug-25 12:33N 20°29' W 086°59'0 0.0
2015-Aug-25 11:33N 20°29' W 086°59'2 0.2
2015-Aug-25 01:33N 20°31' W 086°57'0 0.0
2015-Aug-25 00:34N 20°31' W 086°57'0 0.0
2015-Aug-24 23:34N 20°31' W 086°57'0 0.0
2015-Aug-24 22:33N 20°31' W 086°57'0 0.0
2015-Aug-24 21:33N 20°31' W 086°57'1 0.6
2015-Aug-24 19:11N 20°32' W 086°58'0 0.5
2015-Aug-24 18:33N 20°32' W 086°58'0 0.1
2015-Aug-24 17:12N 20°32' W 086°58'0 0.6
2015-Aug-24 16:33N 20°32' W 086°58'1 0.5
2015-Aug-24 13:33N 20°30' W 086°57'0 0.0
2015-Aug-24 12:33N 20°30' W 086°57'0 0.3
2015-Aug-24 11:33N 20°31' W 086°57'1 0.1
2015-Aug-24 03:34N 20°31' W 086°58'1 1.1
2015-Aug-24 02:19N 20°32' W 086°59'2 3.1
2015-Aug-24 01:33N 20°31' W 086°57'0 0.1
2015-Aug-24 00:33N 20°31' W 086°57'0 0.0
2015-Aug-23 23:33N 20°31' W 086°57'0 0.0
2015-Aug-23 22:33N 20°31' W 086°57'0 0.0
2015-Aug-23 21:33N 20°31' W 086°57'  

Dump ship's entire track history